Crystal Symphony — C6MY5 — position and weather

sailwx.info

Track history (hours):
 
Tides and Currents Weather Stations Pressure Air Temp Water Temp Dewpoint Dewpoint Depression Visibility Wind Speed Wind Dir Waves Ship Positions

Crystal Symphony

Operator: Crystal Cruises

Last reported at 2016-May-25 02:20 UTC. Time now 2016-May-25 22:41 UTC.
Position N 43°50' W 004°40'.

Length 238 m; draft 8 m.

Type: Ship. MMSI: 309168000.

Date/timePositionNaut miles runAvg speedWind from/ knotsBaromVisibWave heightAir tempDewpointWater temp
2016-May-25 02:20N 43°50' W 004°40'1517.3
2016-May-25 01:29N 43°51' W 005°00'1617.3
2016-May-25 00:34N 43°52' W 005°22'1716.7
2016-May-24 23:31N 43°55' W 005°46'334 7.5
2016-May-23 03:04N 39°17' W 009°52'612.2
2016-May-23 02:33N 39°11' W 009°52'1211.9
2016-May-23 01:33N 38°59' W 009°51'1211.8
2016-May-23 00:33N 38°47' W 009°52'1010.5
2016-May-22 23:33N 38°37' W 009°47'1211.7
2016-May-22 22:33N 38°37' W 009°32'1111.4
2016-May-22 21:33N 38°41' W 009°18'8 8.3
2016-May-22 20:33N 38°43' W 009°07'0 0.0
2016-May-22 19:33N 38°43' W 009°07'0 0.0
2016-May-22 18:32N 38°43' W 009°07'0 0.0
2016-May-22 17:32N 38°43' W 009°07'0 0.0
2016-May-22 16:31N 38°43' W 009°07'0 0.0
2016-May-22 15:31N 38°43' W 009°07'0 0.0
2016-May-22 14:33N 38°43' W 009°07'0 0.0
2016-May-22 13:33N 38°43' W 009°07'0 0.0
2016-May-22 12:33N 38°43' W 009°07'0 0.0
2016-May-22 11:32N 38°43' W 009°07'0 0.0
2016-May-22 10:32N 38°43' W 009°07'0 0.0
2016-May-22 09:31N 38°43' W 009°07'0 0.0
2016-May-22 08:31N 38°43' W 009°07'0 0.0
2016-May-22 07:33N 38°43' W 009°07'0 0.0
2016-May-22 06:33N 38°43' W 009°07'0 0.0
2016-May-22 05:33N 38°43' W 009°07'0 0.0
2016-May-22 04:32N 38°43' W 009°07'0 0.0
2016-May-22 03:32N 38°43' W 009°07'0 0.0
2016-May-22 02:31N 38°43' W 009°07'0 0.0
2016-May-22 01:31N 38°43' W 009°07'0 0.0
2016-May-22 00:33N 38°43' W 009°07'0 0.0
2016-May-21 23:24N 38°43' W 009°07'0 0.0
2016-May-21 22:29N 38°43' W 009°07'0 0.0
2016-May-21 21:32N 38°43' W 009°07'0 0.0
2016-May-21 20:32N 38°43' W 009°07'0 0.0
2016-May-21 19:31N 38°43' W 009°07'0 0.0
2016-May-21 18:31N 38°43' W 009°07'0 0.0
2016-May-21 17:33N 38°43' W 009°07'0 0.0
2016-May-21 16:33N 38°43' W 009°07'0 0.0
2016-May-21 15:33N 38°43' W 009°07'0 0.0
2016-May-21 14:32N 38°43' W 009°07'0 0.0
2016-May-21 13:32N 38°43' W 009°07'0 0.0
2016-May-21 12:31N 38°43' W 009°07'0 0.0
2016-May-21 11:31N 38°43' W 009°07'0 0.0
2016-May-21 10:33N 38°43' W 009°07'6 5.6
2016-May-21 09:33N 38°41' W 009°14'1010.5
2016-May-21 08:33N 38°33' W 009°23'1312.6
2016-May-21 07:33N 38°20' W 009°23'1616.2
2016-May-21 06:33N 38°04' W 009°23'1716.4
2016-May-21 05:32N 37°47' W 009°22'1816.8
2016-May-21 04:29N 37°30' W 009°22'1617.2
2016-May-21 03:33N 37°14' W 009°22'3714.9
2016-May-21 01:05N 36°43' W 008°57'16817.1
2016-May-20 15:18N 35°58' W 005°36'1114.9
2016-May-20 14:33N 36°03' W 005°24'5 0.6
2016-May-20 06:12N 36°08' W 005°23'5 8.2
2016-May-20 05:33N 36°06' W 005°17'22415.9
2016-May-19 15:28N 37°09' W 000°49'3517.7
2016-May-19 13:31N 37°34' W 000°19'11217.9
2016-May-19 07:13N 39°10' E 000°54'1318.7
2016-May-19 06:32N 39°22' E 001°01'3618.3
2016-May-19 04:34N 39°55' E 001°20'1818.3
2016-May-19 03:33N 40°12' E 001°30'1818.1
2016-May-19 02:33N 40°28' E 001°40'1818.2
2016-May-19 01:33N 40°45' E 001°49'1818.5
2016-May-19 00:34N 41°01' E 002°00'21 1.3
2016-May-18 08:22N 41°17' E 002°19'1011.9
2016-May-18 07:33N 41°19' E 002°32'1717.0
2016-May-18 06:33N 41°24' E 002°54'1717.3
2016-May-18 05:33N 41°32' E 003°14'14417.9
2016-May-17 21:33N 42°33' E 006°09'5616.4
2016-May-17 18:09N 43°15' E 006°59'1017.8
2016-May-17 17:33N 43°22' E 007°10'1917.2
2016-May-17 16:27N 43°38' E 007°24'6 0.2
2016-May-16 04:33N 43°44' E 007°26'  
Track history (hours):
 
Tides and Currents Weather Stations Pressure Air Temp Water Temp Dewpoint Dewpoint Depression Visibility Wind Speed Wind Dir Waves Ship Positions

Crystal Symphony

Operator: Crystal Cruises

Last reported at 2016-May-25 02:20 UTC. Time now 2016-May-25 22:41 UTC.
Position N 43°50' W 004°40'.

Length 238 m; draft 8 m.

Type: Ship. MMSI: 309168000.

Date/timePositionNaut miles runAvg speedWind from/ knotsBaromVisibWave heightAir tempDewpointWater temp
2016-May-25 02:20N 43°50' W 004°40'1517.3
2016-May-25 01:29N 43°51' W 005°00'1617.3
2016-May-25 00:34N 43°52' W 005°22'1716.7
2016-May-24 23:31N 43°55' W 005°46'334 7.5
2016-May-23 03:04N 39°17' W 009°52'612.2
2016-May-23 02:33N 39°11' W 009°52'1211.9
2016-May-23 01:33N 38°59' W 009°51'1211.8
2016-May-23 00:33N 38°47' W 009°52'1010.5
2016-May-22 23:33N 38°37' W 009°47'1211.7
2016-May-22 22:33N 38°37' W 009°32'1111.4
2016-May-22 21:33N 38°41' W 009°18'8 8.3
2016-May-22 20:33N 38°43' W 009°07'0 0.0
2016-May-22 19:33N 38°43' W 009°07'0 0.0
2016-May-22 18:32N 38°43' W 009°07'0 0.0
2016-May-22 17:32N 38°43' W 009°07'0 0.0
2016-May-22 16:31N 38°43' W 009°07'0 0.0
2016-May-22 15:31N 38°43' W 009°07'0 0.0
2016-May-22 14:33N 38°43' W 009°07'0 0.0
2016-May-22 13:33N 38°43' W 009°07'0 0.0
2016-May-22 12:33N 38°43' W 009°07'0 0.0
2016-May-22 11:32N 38°43' W 009°07'0 0.0
2016-May-22 10:32N 38°43' W 009°07'0 0.0
2016-May-22 09:31N 38°43' W 009°07'0 0.0
2016-May-22 08:31N 38°43' W 009°07'0 0.0
2016-May-22 07:33N 38°43' W 009°07'0 0.0
2016-May-22 06:33N 38°43' W 009°07'0 0.0
2016-May-22 05:33N 38°43' W 009°07'0 0.0
2016-May-22 04:32N 38°43' W 009°07'0 0.0
2016-May-22 03:32N 38°43' W 009°07'0 0.0
2016-May-22 02:31N 38°43' W 009°07'0 0.0
2016-May-22 01:31N 38°43' W 009°07'0 0.0
2016-May-22 00:33N 38°43' W 009°07'0 0.0
2016-May-21 23:24N 38°43' W 009°07'0 0.0
2016-May-21 22:29N 38°43' W 009°07'0 0.0
2016-May-21 21:32N 38°43' W 009°07'0 0.0
2016-May-21 20:32N 38°43' W 009°07'0 0.0
2016-May-21 19:31N 38°43' W 009°07'0 0.0
2016-May-21 18:31N 38°43' W 009°07'0 0.0
2016-May-21 17:33N 38°43' W 009°07'0 0.0
2016-May-21 16:33N 38°43' W 009°07'0 0.0
2016-May-21 15:33N 38°43' W 009°07'0 0.0
2016-May-21 14:32N 38°43' W 009°07'0 0.0
2016-May-21 13:32N 38°43' W 009°07'0 0.0
2016-May-21 12:31N 38°43' W 009°07'0 0.0
2016-May-21 11:31N 38°43' W 009°07'0 0.0
2016-May-21 10:33N 38°43' W 009°07'6 5.6
2016-May-21 09:33N 38°41' W 009°14'1010.5
2016-May-21 08:33N 38°33' W 009°23'1312.6
2016-May-21 07:33N 38°20' W 009°23'1616.2
2016-May-21 06:33N 38°04' W 009°23'1716.4
2016-May-21 05:32N 37°47' W 009°22'1816.8
2016-May-21 04:29N 37°30' W 009°22'1617.2
2016-May-21 03:33N 37°14' W 009°22'3714.9
2016-May-21 01:05N 36°43' W 008°57'16817.1
2016-May-20 15:18N 35°58' W 005°36'1114.9
2016-May-20 14:33N 36°03' W 005°24'5 0.6
2016-May-20 06:12N 36°08' W 005°23'5 8.2
2016-May-20 05:33N 36°06' W 005°17'22415.9
2016-May-19 15:28N 37°09' W 000°49'3517.7
2016-May-19 13:31N 37°34' W 000°19'11217.9
2016-May-19 07:13N 39°10' E 000°54'1318.7
2016-May-19 06:32N 39°22' E 001°01'3618.3
2016-May-19 04:34N 39°55' E 001°20'1818.3
2016-May-19 03:33N 40°12' E 001°30'1818.1
2016-May-19 02:33N 40°28' E 001°40'1818.2
2016-May-19 01:33N 40°45' E 001°49'1818.5
2016-May-19 00:34N 41°01' E 002°00'21 1.3
2016-May-18 08:22N 41°17' E 002°19'1011.9
2016-May-18 07:33N 41°19' E 002°32'1717.0
2016-May-18 06:33N 41°24' E 002°54'1717.3
2016-May-18 05:33N 41°32' E 003°14'14417.9
2016-May-17 21:33N 42°33' E 006°09'5616.4
2016-May-17 18:09N 43°15' E 006°59'1017.8
2016-May-17 17:33N 43°22' E 007°10'1917.2
2016-May-17 16:27N 43°38' E 007°24'6 0.2
2016-May-16 04:33N 43°44' E 007°26'  

Dump ship's entire track history